createdAt,value
2023-02-16T00:00:31.035Z,1.90
2023-02-16T00:03:33.655Z,1.91
2023-02-16T00:06:36.725Z,1.89
2023-02-16T00:09:40.760Z,1.82
2023-02-16T00:13:01.145Z,1.78
2023-02-16T00:16:03.904Z,1.78
2023-02-16T00:19:19.917Z,1.96
2023-02-16T00:22:22.927Z,1.91
2023-02-16T00:25:26.996Z,1.90
2023-02-16T00:28:29.890Z,1.76
2023-02-16T00:31:32.893Z,1.72
2023-02-16T00:34:38.043Z,1.76
2023-02-16T00:37:40.605Z,1.83
2023-02-16T00:40:44.812Z,1.85
2023-02-16T00:43:47.395Z,1.80
2023-02-16T00:46:50.227Z,1.73
2023-02-16T00:49:54.725Z,1.96
2023-02-16T00:52:58.575Z,1.88
2023-02-16T00:56:02.391Z,1.68
2023-02-16T00:59:07.515Z,1.45
2023-02-16T01:02:10.191Z,1.38
2023-02-16T01:05:13.603Z,1.42
2023-02-16T01:08:35.535Z,1.41
2023-02-16T01:11:39.800Z,1.43
2023-02-16T01:14:42.507Z,1.54
2023-02-16T01:17:45.146Z,1.53
2023-02-16T01:20:48.871Z,1.49
2023-02-16T01:23:51.528Z,1.55
2023-02-16T01:26:55.474Z,1.57
2023-02-16T01:29:57.937Z,1.61
2023-02-16T01:33:00.908Z,1.55
2023-02-16T01:36:05.589Z,1.48
2023-02-16T01:39:09.202Z,1.46
2023-02-16T01:42:24.246Z,1.47
2023-02-16T01:45:32.074Z,1.32
2023-02-16T01:48:34.701Z,1.20
2023-02-16T01:51:45.406Z,1.16
2023-02-16T01:54:51.633Z,1.10
2023-02-16T01:57:58.256Z,1.13
2023-02-16T02:01:30.461Z,1.27
2023-02-16T02:04:56.321Z,1.37
2023-02-16T02:08:01.692Z,1.30
2023-02-16T02:11:09.164Z,1.20
2023-02-16T02:14:17.809Z,1.16
2023-02-16T02:17:21.511Z,1.28
2023-02-16T02:20:48.437Z,1.20
2023-02-16T02:24:05.953Z,1.08
2023-02-16T02:27:18.604Z,1.03
2023-02-16T02:30:31.799Z,1.05
2023-02-16T02:33:44.751Z,1.16
2023-02-16T02:36:51.358Z,1.08
2023-02-16T02:39:59.610Z,0.97
2023-02-16T02:43:08.955Z,1.00
2023-02-16T02:46:14.649Z,1.03
2023-02-16T02:49:17.377Z,0.83
2023-02-16T02:52:20.461Z,0.78
2023-02-16T02:55:40.737Z,0.79
2023-02-16T02:59:03.369Z,0.85
2023-02-16T03:02:06.033Z,1.03
2023-02-16T03:05:11.084Z,1.07
2023-02-16T03:08:15.735Z,0.99
2023-02-16T03:11:39.049Z,0.94
2023-02-16T03:14:45.215Z,0.93
2023-02-16T03:18:05.475Z,0.86
2023-02-16T03:21:25.702Z,0.93
2023-02-16T03:24:48.881Z,0.92
2023-02-16T03:28:09.548Z,0.98
2023-02-16T03:31:17.648Z,0.94
2023-02-16T03:34:22.020Z,0.96
2023-02-16T03:37:24.635Z,1.06
2023-02-16T03:40:33.279Z,1.18
2023-02-16T03:43:35.926Z,1.32
2023-02-16T03:46:40.020Z,1.46
2023-02-16T03:49:42.649Z,1.53
2023-02-16T03:52:45.407Z,1.40
2023-02-16T03:55:49.549Z,1.32
2023-02-16T03:58:52.357Z,1.26
2023-02-16T04:01:56.454Z,1.22
2023-02-16T04:04:59.376Z,1.18
2023-02-16T04:08:02.411Z,1.17
2023-02-16T04:11:27.081Z,1.21
2023-02-16T04:14:28.828Z,1.15
2023-02-16T04:17:33.547Z,1.09
2023-02-16T04:20:36.779Z,1.11
2023-02-16T04:23:39.508Z,1.01
2023-02-16T04:26:42.192Z,0.94
2023-02-16T04:29:45.111Z,0.78
2023-02-16T04:32:49.330Z,0.69
2023-02-16T04:35:52.005Z,0.66
2023-02-16T04:38:54.707Z,0.58
2023-02-16T04:41:57.717Z,0.50
2023-02-16T04:45:00.337Z,0.56
2023-02-16T04:48:04.314Z,0.73
2023-02-16T04:51:07.344Z,0.60
2023-02-16T04:54:10.127Z,0.45
2023-02-16T04:57:13.053Z,0.45
2023-02-16T05:00:16.349Z,0.45
2023-02-16T05:03:20.533Z,0.53
2023-02-16T05:06:23.316Z,0.57
2023-02-16T05:09:26.196Z,0.57
2023-02-16T05:12:46.394Z,0.52
2023-02-16T05:15:49.253Z,0.49
2023-02-16T05:18:53.259Z,0.50
2023-02-16T05:21:55.935Z,0.40
2023-02-16T05:24:58.587Z,0.29
2023-02-16T05:28:01.599Z,0.28
2023-02-16T05:31:04.578Z,0.26
2023-02-16T05:34:08.643Z,0.28
2023-02-16T05:37:11.297Z,0.44
2023-02-16T05:40:14.809Z,0.57
2023-02-16T05:43:17.716Z,0.58
2023-02-16T05:46:20.640Z,0.54
2023-02-16T05:49:24.830Z,0.52
2023-02-16T05:52:27.710Z,0.51
2023-02-16T05:55:30.714Z,0.58
2023-02-16T05:58:33.480Z,0.71
2023-02-16T06:01:36.230Z,0.60
2023-02-16T06:04:40.355Z,0.52
2023-02-16T06:07:43.077Z,0.73
2023-02-16T06:10:45.926Z,0.74
2023-02-16T06:13:50.152Z,0.91
2023-02-16T06:16:52.809Z,0.80
2023-02-16T06:19:56.777Z,0.68
2023-02-16T06:22:59.415Z,0.59
2023-02-16T06:26:02.075Z,0.51
2023-02-16T06:29:05.180Z,0.36
2023-02-16T06:32:07.927Z,0.41
2023-02-16T06:35:12.102Z,0.45
2023-02-16T06:38:14.792Z,0.49
2023-02-16T06:41:31.478Z,0.52
2023-02-16T06:44:34.292Z,0.49
2023-02-16T06:47:37.362Z,0.52
2023-02-16T06:50:41.390Z,0.63
2023-02-16T06:53:44.036Z,0.75
2023-02-16T06:56:46.833Z,0.78
2023-02-16T06:59:49.694Z,0.79
2023-02-16T07:02:52.426Z,0.80
2023-02-16T07:05:56.664Z,0.88
2023-02-16T07:09:00.423Z,0.96
2023-02-16T07:12:03.062Z,1.11
2023-02-16T07:15:06.150Z,1.23
2023-02-16T07:18:08.856Z,1.27
2023-02-16T07:21:13.056Z,1.25
2023-02-16T07:24:16.086Z,1.30
2023-02-16T07:27:18.753Z,1.37
2023-02-16T07:30:21.761Z,1.40
2023-02-16T07:33:24.596Z,1.42
2023-02-16T07:36:28.874Z,1.49
2023-02-16T07:39:31.871Z,1.56
2023-02-16T07:42:35.331Z,1.74
2023-02-16T07:45:38.117Z,1.82
2023-02-16T07:48:40.731Z,1.92
2023-02-16T07:51:44.958Z,2.09
2023-02-16T07:54:47.708Z,2.23
2023-02-16T07:57:54.714Z,2.30
2023-02-16T08:00:58.356Z,2.42
2023-02-16T08:04:01.079Z,2.48
2023-02-16T08:07:04.954Z,2.54
2023-02-16T08:10:08.072Z,2.68
2023-02-16T08:13:10.898Z,2.79
2023-02-16T08:16:16.008Z,2.92
2023-02-16T08:19:18.624Z,3.04
2023-02-16T08:22:22.587Z,3.21
2023-02-16T08:25:25.764Z,3.32
2023-02-16T08:28:29.471Z,3.44
2023-02-16T08:31:34.987Z,3.65
2023-02-16T08:34:38.732Z,3.84
2023-02-16T08:37:42.674Z,4.03
2023-02-16T08:40:48.771Z,4.19
2023-02-16T08:43:52.371Z,4.37
2023-02-16T08:46:57.334Z,4.52
2023-02-16T08:49:59.938Z,4.78
2023-02-16T08:53:04.079Z,4.98
2023-02-16T08:56:07.236Z,5.17
2023-02-16T08:59:09.964Z,5.35
2023-02-16T09:02:12.842Z,5.49
2023-02-16T09:05:16.077Z,5.66
2023-02-16T09:08:20.396Z,5.77
2023-02-16T09:11:24.027Z,6.02
2023-02-16T09:14:27.997Z,6.32
2023-02-16T09:17:31.161Z,6.49
2023-02-16T09:20:34.118Z,6.66
2023-02-16T09:23:38.506Z,6.88
2023-02-16T09:26:42.860Z,7.00
2023-02-16T09:29:45.470Z,7.18
2023-02-16T09:32:48.265Z,7.38
2023-02-16T09:35:50.906Z,7.55
2023-02-16T09:38:56.360Z,7.62
2023-02-16T09:42:05.636Z,7.73
2023-02-16T09:45:10.546Z,7.88
2023-02-16T09:48:22.945Z,8.01
2023-02-16T09:51:34.284Z,8.15
2023-02-16T09:54:43.990Z,8.24
2023-02-16T09:57:57.194Z,8.41
2023-02-16T10:01:05.580Z,8.70
2023-02-16T10:04:28.907Z,8.98
2023-02-16T10:07:36.398Z,9.18
2023-02-16T10:10:46.364Z,9.26
2023-02-16T10:13:54.111Z,9.50
2023-02-16T10:17:03.167Z,9.74
2023-02-16T10:20:11.418Z,9.84
2023-02-16T10:23:21.436Z,10.09
2023-02-16T10:26:29.518Z,10.34
2023-02-16T10:29:32.179Z,10.51
2023-02-16T10:32:44.024Z,10.69
2023-02-16T10:35:48.522Z,10.88
2023-02-16T10:38:56.431Z,10.95
2023-02-16T10:42:04.408Z,11.05
2023-02-16T10:45:18.860Z,11.34
2023-02-16T10:48:22.990Z,11.47
2023-02-16T10:51:28.963Z,11.53
2023-02-16T10:54:33.213Z,11.79
2023-02-16T10:57:37.232Z,11.85
2023-02-16T11:00:48.303Z,11.85
2023-02-16T11:03:53.135Z,11.95
2023-02-16T11:07:05.017Z,12.30
2023-02-16T11:10:27.473Z,12.65
2023-02-16T11:13:34.011Z,12.70
2023-02-16T11:16:36.813Z,12.83
2023-02-16T11:19:40.273Z,12.97
2023-02-16T11:22:43.031Z,12.94
2023-02-16T11:25:55.813Z,12.99
2023-02-16T11:29:09.225Z,12.99
2023-02-16T11:32:13.780Z,13.20
2023-02-16T11:35:17.608Z,13.31
2023-02-16T11:38:29.158Z,13.47
2023-02-16T11:41:33.578Z,13.61
2023-02-16T11:44:39.678Z,13.67
2023-02-16T11:47:43.197Z,13.74
2023-02-16T11:50:57.904Z,13.93
2023-02-16T11:54:02.557Z,14.05
2023-02-16T11:57:09.270Z,14.03
2023-02-16T12:00:18.161Z,14.27
2023-02-16T12:03:31.476Z,14.49
2023-02-16T12:06:47.114Z,14.61
2023-02-16T12:09:54.979Z,14.69
2023-02-16T12:13:04.011Z,14.86
2023-02-16T12:16:17.837Z,15.09
2023-02-16T12:19:24.413Z,15.45
2023-02-16T12:22:35.081Z,15.73
2023-02-16T12:25:40.037Z,16.21
2023-02-16T12:28:47.981Z,16.40
2023-02-16T12:32:02.348Z,16.56
2023-02-16T12:35:14.831Z,17.04
2023-02-16T12:38:24.582Z,17.43
2023-02-16T12:41:35.976Z,17.49
2023-02-16T12:44:42.801Z,17.68
2023-02-16T12:47:51.255Z,17.78
2023-02-16T12:50:54.289Z,17.88
2023-02-16T12:54:01.167Z,17.94
2023-02-16T12:57:08.162Z,17.97
2023-02-16T13:00:17.778Z,17.76
2023-02-16T13:03:35.074Z,17.85
2023-02-16T13:06:41.902Z,17.50
2023-02-16T13:09:51.374Z,17.50
2023-02-16T13:12:57.230Z,19.23
2023-02-16T13:16:03.305Z,25.54
2023-02-16T13:19:07.545Z,30.29
2023-02-16T13:22:53.732Z,32.01
2023-02-16T13:26:10.813Z,30.27
2023-02-16T13:29:30.225Z,28.50
2023-02-16T13:33:00.227Z,26.53
2023-02-16T13:36:29.753Z,26.71
2023-02-16T13:39:42.785Z,27.08
2023-02-16T13:42:59.311Z,28.30
2023-02-16T13:46:05.822Z,27.15
2023-02-16T13:49:28.000Z,24.40
2023-02-16T13:52:35.101Z,22.08
2023-02-16T13:55:40.447Z,21.47
2023-02-16T13:58:43.241Z,21.88
2023-02-16T14:01:47.309Z,25.86
2023-02-16T14:05:05.372Z,28.86
2023-02-16T14:08:18.852Z,27.25
2023-02-16T14:11:21.774Z,24.25
2023-02-16T14:14:31.448Z,23.17
2023-02-16T14:17:35.973Z,22.87
2023-02-16T14:20:38.912Z,22.22
2023-02-16T14:23:43.046Z,21.14
2023-02-16T14:26:53.761Z,20.57
2023-02-16T14:29:58.358Z,20.66
2023-02-16T14:33:06.876Z,19.55
2023-02-16T14:36:15.865Z,18.80
2023-02-16T14:39:22.889Z,18.45
2023-02-16T14:42:30.156Z,18.27
2023-02-16T14:45:51.805Z,17.91
2023-02-16T14:49:18.150Z,17.68
2023-02-16T14:52:38.727Z,17.63
2023-02-16T14:55:55.013Z,17.95
2023-02-16T14:59:01.535Z,17.78
2023-02-16T15:02:29.508Z,17.60
2023-02-16T15:05:34.374Z,17.75
2023-02-16T15:08:40.303Z,17.94
2023-02-16T15:12:07.998Z,17.75
2023-02-16T15:15:19.648Z,17.26
2023-02-16T15:18:24.039Z,16.96
2023-02-16T15:21:28.491Z,16.56
2023-02-16T15:24:31.291Z,16.44
2023-02-16T15:27:35.396Z,16.23
2023-02-16T15:30:41.242Z,16.10
2023-02-16T15:33:46.215Z,15.96
2023-02-16T15:36:48.816Z,15.79
2023-02-16T15:40:08.760Z,15.60
2023-02-16T15:43:26.816Z,15.45
2023-02-16T15:46:31.738Z,15.22
2023-02-16T15:49:34.975Z,15.06
2023-02-16T15:52:38.756Z,14.90
2023-02-16T15:55:45.834Z,14.71
2023-02-16T15:58:50.250Z,14.49
2023-02-16T16:01:58.177Z,14.28
2023-02-16T16:05:03.428Z,14.15
2023-02-16T16:08:06.363Z,14.02
2023-02-16T16:11:09.415Z,14.00
2023-02-16T16:14:14.685Z,14.06
2023-02-16T16:17:28.037Z,14.10
2023-02-16T16:20:32.228Z,14.09
2023-02-16T16:23:34.833Z,14.08
2023-02-16T16:26:52.697Z,14.09
2023-02-16T16:30:11.396Z,14.07
2023-02-16T16:33:15.916Z,14.05
2023-02-16T16:36:18.587Z,14.05
2023-02-16T16:39:25.414Z,13.95
2023-02-16T16:42:28.468Z,13.94
2023-02-16T16:45:39.901Z,13.88
2023-02-16T16:48:46.701Z,13.79
2023-02-16T16:51:53.267Z,13.72
2023-02-16T16:54:55.882Z,13.63
2023-02-16T16:58:00.600Z,13.59
2023-02-16T17:01:05.176Z,13.49
2023-02-16T17:04:08.011Z,13.34
2023-02-16T17:07:10.641Z,13.20
2023-02-16T17:10:13.381Z,12.99
2023-02-16T17:13:17.490Z,12.82
2023-02-16T17:16:22.943Z,12.72
2023-02-16T17:19:27.192Z,12.70
2023-02-16T17:22:29.876Z,12.59
2023-02-16T17:25:34.296Z,12.51
2023-02-16T17:28:37.563Z,12.42
2023-02-16T17:31:42.394Z,12.35
2023-02-16T17:34:45.717Z,12.26
2023-02-16T17:37:49.371Z,12.30
2023-02-16T17:40:52.684Z,12.27
2023-02-16T17:43:56.164Z,12.24
2023-02-16T17:47:00.249Z,12.16
2023-02-16T17:50:03.876Z,12.13
2023-02-16T17:53:10.613Z,12.08
2023-02-16T17:56:14.621Z,12.08
2023-02-16T17:59:17.428Z,12.06
2023-02-16T18:02:21.748Z,12.00
2023-02-16T18:05:24.724Z,11.96
2023-02-16T18:08:27.375Z,11.94
2023-02-16T18:11:30.086Z,11.98
2023-02-16T18:14:32.806Z,12.04
2023-02-16T18:17:36.858Z,12.16
2023-02-16T18:20:39.860Z,12.27
2023-02-16T18:23:42.529Z,12.26
2023-02-16T18:26:45.411Z,12.21
2023-02-16T18:29:48.157Z,12.14
2023-02-16T18:32:52.153Z,12.05
2023-02-16T18:35:57.151Z,12.02
2023-02-16T18:39:00.022Z,11.99
2023-02-16T18:42:02.922Z,11.95
2023-02-16T18:45:06.953Z,11.88
2023-02-16T18:48:11.402Z,11.88
2023-02-16T18:51:14.196Z,11.86
2023-02-16T18:54:16.859Z,11.81
2023-02-16T18:57:19.564Z,11.81
2023-02-16T19:00:22.285Z,11.79
2023-02-16T19:03:27.655Z,11.72
2023-02-16T19:06:31.304Z,11.62
2023-02-16T19:09:33.902Z,11.46
2023-02-16T19:12:36.625Z,11.54
2023-02-16T19:15:39.371Z,11.66
2023-02-16T19:18:43.400Z,11.79
2023-02-16T19:21:46.018Z,11.93
2023-02-16T19:24:50.364Z,12.13
2023-02-16T19:27:53.120Z,12.25
2023-02-16T19:30:57.579Z,12.40
2023-02-16T19:34:01.654Z,12.44
2023-02-16T19:37:04.290Z,12.44
2023-02-16T19:40:10.431Z,12.47
2023-02-16T19:43:13.598Z,12.58
2023-02-16T19:46:16.419Z,12.68
2023-02-16T19:49:20.698Z,12.74
2023-02-16T19:52:23.709Z,12.77
2023-02-16T19:55:26.344Z,12.85
2023-02-16T19:58:29.162Z,12.94
2023-02-16T20:01:31.977Z,13.01
2023-02-16T20:04:36.400Z,13.08
2023-02-16T20:07:38.976Z,13.15
2023-02-16T20:10:44.300Z,13.11
2023-02-16T20:13:47.505Z,13.11
2023-02-16T20:16:51.855Z,13.11
2023-02-16T20:19:56.035Z,13.06
2023-02-16T20:22:58.726Z,13.08
2023-02-16T20:26:01.442Z,12.93
2023-02-16T20:29:05.059Z,12.77
2023-02-16T20:32:08.188Z,12.76
2023-02-16T20:35:12.632Z,12.74
2023-02-16T20:38:15.960Z,12.61
2023-02-16T20:41:19.661Z,12.48
2023-02-16T20:44:22.724Z,12.27
2023-02-16T20:47:25.524Z,12.08
2023-02-16T20:50:29.490Z,11.93
2023-02-16T20:53:33.594Z,11.76
2023-02-16T20:56:36.960Z,11.60
2023-02-16T20:59:39.851Z,11.54
2023-02-16T21:02:43.272Z,11.46
2023-02-16T21:05:47.397Z,11.44
2023-02-16T21:08:50.220Z,11.35
2023-02-16T21:11:52.860Z,11.31
2023-02-16T21:14:55.870Z,11.31
2023-02-16T21:17:58.578Z,11.19
2023-02-16T21:21:03.227Z,11.24
2023-02-16T21:24:06.244Z,11.25
2023-02-16T21:27:09.352Z,11.36
2023-02-16T21:30:13.236Z,11.40
2023-02-16T21:33:15.973Z,11.59
2023-02-16T21:36:22.384Z,11.66
2023-02-16T21:43:10.984Z,12.13
2023-02-16T21:46:14.052Z,12.18
2023-02-16T21:49:18.278Z,12.24
2023-02-16T21:52:22.996Z,12.27
2023-02-16T21:55:52.238Z,12.22
2023-02-16T21:58:54.865Z,12.38
2023-02-16T22:01:57.584Z,12.37
2023-02-16T22:05:00.195Z,12.44
2023-02-16T22:08:04.399Z,12.36
2023-02-16T22:11:08.820Z,12.40
2023-02-16T22:14:12.006Z,12.32
2023-02-16T22:17:14.756Z,12.45
2023-02-16T22:20:18.013Z,12.49
2023-02-16T22:23:21.969Z,12.41
2023-02-16T22:26:26.235Z,12.38
2023-02-16T22:29:28.992Z,12.30
2023-02-16T22:32:31.689Z,12.18
2023-02-16T22:35:34.502Z,12.11
2023-02-16T22:38:38.717Z,12.10
2023-02-16T22:41:41.529Z,12.12
2023-02-16T22:44:44.152Z,12.15
2023-02-16T22:47:46.970Z,12.05
2023-02-16T22:50:58.203Z,12.06
2023-02-16T22:54:03.088Z,12.10
2023-02-16T22:57:07.933Z,12.15
2023-02-16T23:00:12.809Z,12.16
2023-02-16T23:03:15.742Z,12.12
2023-02-16T23:06:20.221Z,12.03
2023-02-16T23:09:24.549Z,11.99
2023-02-16T23:12:28.236Z,11.90
2023-02-16T23:15:30.775Z,11.84
2023-02-16T23:18:33.614Z,11.86
2023-02-16T23:21:36.290Z,11.76
2023-02-16T23:24:41.271Z,11.54
2023-02-16T23:27:43.988Z,11.43
2023-02-16T23:30:47.635Z,11.38
2023-02-16T23:33:50.307Z,11.50
2023-02-16T23:36:53.020Z,11.64
2023-02-16T23:39:56.952Z,11.61
2023-02-16T23:42:59.617Z,11.55
2023-02-16T23:46:03.163Z,11.65
2023-02-16T23:49:05.690Z,11.65
2023-02-16T23:52:08.278Z,11.68
2023-02-16T23:55:12.526Z,11.67
2023-02-16T23:58:15.261Z,11.69
